sensor_id;sensor_type;location;lat;lon;timestamp;pressure;altitude;pressure_sealevel;temperature;humidity
49102;BME280;34913;47.520;19.186;2023-03-04T00:02:20;99985.84;;;1.07;83.02
49102;BME280;34913;47.520;19.186;2023-03-04T00:04:46;99986.91;;;1.03;82.54
49102;BME280;34913;47.520;19.186;2023-03-04T00:07:11;99977.47;;;0.99;82.54
49102;BME280;34913;47.520;19.186;2023-03-04T00:09:42;99984.56;;;0.97;82.75
49102;BME280;34913;47.520;19.186;2023-03-04T00:12:07;99989.13;;;0.92;82.68
49102;BME280;34913;47.520;19.186;2023-03-04T00:14:33;99985.00;;;0.87;82.88
49102;BME280;34913;47.520;19.186;2023-03-04T00:16:58;99995.72;;;0.80;82.67
49102;BME280;34913;47.520;19.186;2023-03-04T00:19:23;99993.13;;;0.80;82.95
49102;BME280;34913;47.520;19.186;2023-03-04T00:21:49;99991.47;;;0.78;82.25
49102;BME280;34913;47.520;19.186;2023-03-04T00:24:14;99991.59;;;0.75;82.39
49102;BME280;34913;47.520;19.186;2023-03-04T00:26:40;99983.09;;;0.70;82.45
49102;BME280;34913;47.520;19.186;2023-03-04T00:29:05;99985.72;;;0.70;82.52
49102;BME280;34913;47.520;19.186;2023-03-04T00:31:30;99975.56;;;0.64;82.88
49102;BME280;34913;47.520;19.186;2023-03-04T00:33:56;99972.13;;;0.62;82.16
49102;BME280;34913;47.520;19.186;2023-03-04T00:36:21;99974.16;;;0.55;82.22
49102;BME280;34913;47.520;19.186;2023-03-04T00:38:47;99976.19;;;0.48;82.60
49102;BME280;34913;47.520;19.186;2023-03-04T00:41:12;99977.22;;;0.44;82.65
49102;BME280;34913;47.520;19.186;2023-03-04T00:43:37;99972.59;;;0.51;82.73
49102;BME280;34913;47.520;19.186;2023-03-04T00:46:03;99974.09;;;0.57;82.12
49102;BME280;34913;47.520;19.186;2023-03-04T00:48:29;99967.66;;;0.65;81.48
49102;BME280;34913;47.520;19.186;2023-03-04T00:50:54;99958.56;;;0.74;81.35
49102;BME280;34913;47.520;19.186;2023-03-04T00:53:20;99959.19;;;0.79;80.81
49102;BME280;34913;47.520;19.186;2023-03-04T00:55:48;99957.38;;;0.81;80.40
49102;BME280;34913;47.520;19.186;2023-03-04T00:58:13;99961.81;;;0.79;80.38
49102;BME280;34913;47.520;19.186;2023-03-04T01:00:38;99954.84;;;0.79;80.50
49102;BME280;34913;47.520;19.186;2023-03-04T01:03:04;99955.72;;;0.78;79.81
49102;BME280;34913;47.520;19.186;2023-03-04T01:05:29;99955.63;;;0.81;78.81
49102;BME280;34913;47.520;19.186;2023-03-04T01:07:56;99950.91;;;0.90;79.17
49102;BME280;34913;47.520;19.186;2023-03-04T01:10:21;99943.66;;;0.96;78.55
49102;BME280;34913;47.520;19.186;2023-03-04T01:12:47;99950.44;;;1.00;78.44
49102;BME280;34913;47.520;19.186;2023-03-04T01:15:13;99946.06;;;1.01;76.51
49102;BME280;34913;47.520;19.186;2023-03-04T01:17:39;99954.50;;;0.87;76.46
49102;BME280;34913;47.520;19.186;2023-03-04T01:20:05;99943.25;;;0.85;76.26
49102;BME280;34913;47.520;19.186;2023-03-04T01:22:31;99949.38;;;0.65;76.72
49102;BME280;34913;47.520;19.186;2023-03-04T01:24:57;99945.09;;;0.63;76.67
49102;BME280;34913;47.520;19.186;2023-03-04T01:27:22;99935.63;;;0.60;76.64
49102;BME280;34913;47.520;19.186;2023-03-04T01:29:48;99945.91;;;0.65;76.50
49102;BME280;34913;47.520;19.186;2023-03-04T01:32:13;99941.28;;;0.71;75.90
49102;BME280;34913;47.520;19.186;2023-03-04T01:34:39;99932.56;;;0.71;75.11
49102;BME280;34913;47.520;19.186;2023-03-04T01:37:05;99935.38;;;0.66;74.57
49102;BME280;34913;47.520;19.186;2023-03-04T01:39:30;99926.56;;;0.69;74.01
49102;BME280;34913;47.520;19.186;2023-03-04T01:41:56;99923.09;;;0.68;74.30
49102;BME280;34913;47.520;19.186;2023-03-04T01:44:21;99922.97;;;0.71;74.79
49102;BME280;34913;47.520;19.186;2023-03-04T01:46:49;99925.44;;;0.74;74.05
49102;BME280;34913;47.520;19.186;2023-03-04T01:49:16;99914.00;;;0.77;73.61
49102;BME280;34913;47.520;19.186;2023-03-04T01:51:43;99914.78;;;0.79;74.89
49102;BME280;34913;47.520;19.186;2023-03-04T01:54:09;99912.25;;;0.77;75.13
49102;BME280;34913;47.520;19.186;2023-03-04T01:56:36;99915.84;;;0.75;74.54
49102;BME280;34913;47.520;19.186;2023-03-04T02:01:32;99913.91;;;0.60;74.19
49102;BME280;34913;47.520;19.186;2023-03-04T02:03:57;99912.88;;;0.64;74.75
49102;BME280;34913;47.520;19.186;2023-03-04T02:06:23;99906.91;;;0.60;74.38
49102;BME280;34913;47.520;19.186;2023-03-04T02:08:48;99906.38;;;0.52;73.73
49102;BME280;34913;47.520;19.186;2023-03-04T02:11:14;99901.34;;;0.47;74.20
49102;BME280;34913;47.520;19.186;2023-03-04T02:13:39;99908.41;;;0.45;74.96
49102;BME280;34913;47.520;19.186;2023-03-04T02:16:05;99897.59;;;0.34;74.26
49102;BME280;34913;47.520;19.186;2023-03-04T02:18:30;99895.09;;;0.31;74.72
49102;BME280;34913;47.520;19.186;2023-03-04T02:23:39;99889.34;;;0.03;75.28
49102;BME280;34913;47.520;19.186;2023-03-04T02:26:22;99891.03;;;0.04;75.34
49102;BME280;34913;47.520;19.186;2023-03-04T02:28:50;99890.13;;;0.05;75.03
49102;BME280;34913;47.520;19.186;2023-03-04T02:31:26;99889.19;;;0.06;74.70
49102;BME280;34913;47.520;19.186;2023-03-04T02:33:57;99882.13;;;0.09;74.64
49102;BME280;34913;47.520;19.186;2023-03-04T02:36:23;99887.88;;;-0.05;74.54
49102;BME280;34913;47.520;19.186;2023-03-04T02:38:50;99883.66;;;-0.07;74.46
49102;BME280;34913;47.520;19.186;2023-03-04T02:41:20;99884.28;;;-0.02;74.33
49102;BME280;34913;47.520;19.186;2023-03-04T02:43:49;99873.84;;;-0.02;73.82
49102;BME280;34913;47.520;19.186;2023-03-04T02:46:16;99869.28;;;-0.17;73.94
49102;BME280;34913;47.520;19.186;2023-03-04T02:48:41;99865.03;;;-0.20;74.51
49102;BME280;34913;47.520;19.186;2023-03-04T02:51:06;99860.59;;;-0.18;74.96
49102;BME280;34913;47.520;19.186;2023-03-04T02:53:32;99863.66;;;-0.08;73.57
49102;BME280;34913;47.520;19.186;2023-03-04T02:55:58;99861.94;;;-0.08;74.25
49102;BME280;34913;47.520;19.186;2023-03-04T02:58:23;99867.16;;;-0.08;72.72
49102;BME280;34913;47.520;19.186;2023-03-04T03:00:48;99860.81;;;-0.02;72.82
49102;BME280;34913;47.520;19.186;2023-03-04T03:03:14;99859.44;;;-0.11;72.33
49102;BME280;34913;47.520;19.186;2023-03-04T03:05:40;99859.75;;;-0.18;72.47
49102;BME280;34913;47.520;19.186;2023-03-04T03:08:05;99863.19;;;-0.18;72.99
49102;BME280;34913;47.520;19.186;2023-03-04T03:10:31;99868.34;;;-0.16;73.28
49102;BME280;34913;47.520;19.186;2023-03-04T03:12:57;99859.56;;;-0.14;72.03
49102;BME280;34913;47.520;19.186;2023-03-04T03:15:22;99861.03;;;-0.07;71.42
49102;BME280;34913;47.520;19.186;2023-03-04T03:17:48;99860.34;;;-0.12;71.33
49102;BME280;34913;47.520;19.186;2023-03-04T03:20:14;99857.81;;;-0.13;71.13
49102;BME280;34913;47.520;19.186;2023-03-04T03:22:40;99849.91;;;-0.12;70.66
49102;BME280;34913;47.520;19.186;2023-03-04T03:25:07;99852.28;;;-0.06;71.04
49102;BME280;34913;47.520;19.186;2023-03-04T03:27:33;99841.84;;;-0.06;70.40
49102;BME280;34913;47.520;19.186;2023-03-04T03:29:58;99840.00;;;-0.04;69.80
49102;BME280;34913;47.520;19.186;2023-03-04T03:32:23;99845.06;;;0.01;69.46
49102;BME280;34913;47.520;19.186;2023-03-04T03:34:49;99835.25;;;0.06;69.55
49102;BME280;34913;47.520;19.186;2023-03-04T03:37:15;99842.97;;;0.09;69.33
49102;BME280;34913;47.520;19.186;2023-03-04T03:39:40;99839.63;;;0.06;69.08
49102;BME280;34913;47.520;19.186;2023-03-04T03:42:06;99841.59;;;0.01;68.52
49102;BME280;34913;47.520;19.186;2023-03-04T03:44:31;99826.91;;;-0.02;69.17
49102;BME280;34913;47.520;19.186;2023-03-04T03:46:57;99830.56;;;-0.06;68.61
49102;BME280;34913;47.520;19.186;2023-03-04T03:49:22;99839.41;;;-0.10;69.15
49102;BME280;34913;47.520;19.186;2023-03-04T03:51:47;99833.25;;;-0.08;69.00
49102;BME280;34913;47.520;19.186;2023-03-04T03:54:13;99840.41;;;-0.13;69.08
49102;BME280;34913;47.520;19.186;2023-03-04T03:56:38;99836.75;;;-0.09;69.46
49102;BME280;34913;47.520;19.186;2023-03-04T03:59:04;99832.91;;;0.00;69.51
49102;BME280;34913;47.520;19.186;2023-03-04T04:01:29;99830.84;;;0.08;68.69
49102;BME280;34913;47.520;19.186;2023-03-04T04:03:55;99832.38;;;0.12;68.21
49102;BME280;34913;47.520;19.186;2023-03-04T04:06:20;99824.75;;;0.08;68.03
49102;BME280;34913;47.520;19.186;2023-03-04T04:08:46;99830.56;;;0.14;68.31
49102;BME280;34913;47.520;19.186;2023-03-04T04:11:12;99829.78;;;0.12;68.47
49102;BME280;34913;47.520;19.186;2023-03-04T04:13:37;99838.28;;;0.17;68.48
49102;BME280;34913;47.520;19.186;2023-03-04T04:16:03;99829.28;;;0.24;68.12
49102;BME280;34913;47.520;19.186;2023-03-04T04:18:29;99832.44;;;0.31;67.59
49102;BME280;34913;47.520;19.186;2023-03-04T04:20:54;99830.47;;;0.36;67.72
49102;BME280;34913;47.520;19.186;2023-03-04T04:23:20;99834.94;;;0.34;68.36
49102;BME280;34913;47.520;19.186;2023-03-04T04:25:45;99826.84;;;0.40;68.25
49102;BME280;34913;47.520;19.186;2023-03-04T04:28:11;99833.84;;;0.40;68.07
49102;BME280;34913;47.520;19.186;2023-03-04T04:30:37;99826.50;;;0.48;67.44
49102;BME280;34913;47.520;19.186;2023-03-04T04:33:03;99839.06;;;0.59;67.78
49102;BME280;34913;47.520;19.186;2023-03-04T04:35:30;99833.00;;;0.58;67.66
49102;BME280;34913;47.520;19.186;2023-03-04T04:37:56;99824.53;;;0.53;68.19
49102;BME280;34913;47.520;19.186;2023-03-04T04:40:22;99834.34;;;0.48;67.84
49102;BME280;34913;47.520;19.186;2023-03-04T04:42:47;99825.59;;;0.49;68.08
49102;BME280;34913;47.520;19.186;2023-03-04T04:45:13;99820.22;;;0.52;68.00
49102;BME280;34913;47.520;19.186;2023-03-04T04:47:38;99819.44;;;0.50;68.07
49102;BME280;34913;47.520;19.186;2023-03-04T04:50:05;99821.84;;;0.54;67.80
49102;BME280;34913;47.520;19.186;2023-03-04T04:52:31;99819.94;;;0.58;68.06
49102;BME280;34913;47.520;19.186;2023-03-04T04:54:56;99822.69;;;0.55;68.32
49102;BME280;34913;47.520;19.186;2023-03-04T04:57:22;99817.56;;;0.72;67.35
49102;BME280;34913;47.520;19.186;2023-03-04T04:59:48;99819.38;;;0.70;67.15
49102;BME280;34913;47.520;19.186;2023-03-04T05:02:13;99828.63;;;0.59;67.75
49102;BME280;34913;47.520;19.186;2023-03-04T05:04:39;99827.88;;;0.57;68.50
49102;BME280;34913;47.520;19.186;2023-03-04T05:07:04;99821.16;;;0.70;68.25
49102;BME280;34913;47.520;19.186;2023-03-04T05:09:30;99828.88;;;0.73;68.32
49102;BME280;34913;47.520;19.186;2023-03-04T05:11:55;99834.09;;;0.73;68.25
49102;BME280;34913;47.520;19.186;2023-03-04T05:14:22;99819.47;;;0.69;68.27
49102;BME280;34913;47.520;19.186;2023-03-04T05:16:47;99821.50;;;0.62;68.70
49102;BME280;34913;47.520;19.186;2023-03-04T05:19:13;99820.66;;;0.62;69.14
49102;BME280;34913;47.520;19.186;2023-03-04T05:21:38;99828.81;;;0.54;69.23
49102;BME280;34913;47.520;19.186;2023-03-04T05:24:04;99830.94;;;0.46;69.74
49102;BME280;34913;47.520;19.186;2023-03-04T05:26:29;99831.25;;;0.38;70.32
49102;BME280;34913;47.520;19.186;2023-03-04T05:28:55;99830.41;;;0.38;70.95
49102;BME280;34913;47.520;19.186;2023-03-04T05:31:20;99829.16;;;0.46;70.97
49102;BME280;34913;47.520;19.186;2023-03-04T05:33:46;99827.97;;;0.53;70.98
49102;BME280;34913;47.520;19.186;2023-03-04T05:36:11;99824.34;;;0.58;71.40
49102;BME280;34913;47.520;19.186;2023-03-04T05:38:37;99824.59;;;0.70;70.96
49102;BME280;34913;47.520;19.186;2023-03-04T05:41:04;99838.97;;;0.80;70.88
49102;BME280;34913;47.520;19.186;2023-03-04T05:43:32;99834.59;;;1.00;69.93
49102;BME280;34913;47.520;19.186;2023-03-04T05:46:00;99838.41;;;0.93;70.34
49102;BME280;34913;47.520;19.186;2023-03-04T05:48:26;99847.78;;;0.78;70.91
49102;BME280;34913;47.520;19.186;2023-03-04T05:50:57;99840.78;;;0.78;71.03
49102;BME280;34913;47.520;19.186;2023-03-04T05:53:23;99836.78;;;0.90;70.76
49102;BME280;34913;47.520;19.186;2023-03-04T05:55:49;99839.81;;;1.00;70.85
49102;BME280;34913;47.520;19.186;2023-03-04T05:58:15;99847.53;;;1.03;70.79
49102;BME280;34913;47.520;19.186;2023-03-04T06:00:41;99847.53;;;1.03;71.14
49102;BME280;34913;47.520;19.186;2023-03-04T06:03:13;99857.25;;;1.18;70.39
49102;BME280;34913;47.520;19.186;2023-03-04T06:05:39;99858.34;;;1.14;70.75
49102;BME280;34913;47.520;19.186;2023-03-04T06:08:04;99854.94;;;1.12;70.68
49102;BME280;34913;47.520;19.186;2023-03-04T06:10:30;99857.41;;;1.15;70.96
49102;BME280;34913;47.520;19.186;2023-03-04T06:12:55;99858.25;;;1.16;71.49
49102;BME280;34913;47.520;19.186;2023-03-04T06:15:20;99856.66;;;1.13;71.15
49102;BME280;34913;47.520;19.186;2023-03-04T06:17:46;99858.53;;;1.09;71.33
49102;BME280;34913;47.520;19.186;2023-03-04T06:20:12;99865.75;;;1.23;71.48
49102;BME280;34913;47.520;19.186;2023-03-04T06:22:38;99862.56;;;1.35;70.89
49102;BME280;34913;47.520;19.186;2023-03-04T06:25:04;99859.44;;;1.46;71.12
49102;BME280;34913;47.520;19.186;2023-03-04T06:27:29;99859.63;;;1.60;70.65
49102;BME280;34913;47.520;19.186;2023-03-04T06:29:55;99863.84;;;1.82;69.11
49102;BME280;34913;47.520;19.186;2023-03-04T06:32:20;99868.09;;;2.02;68.03
49102;BME280;34913;47.520;19.186;2023-03-04T06:34:46;99864.88;;;2.14;68.10
49102;BME280;34913;47.520;19.186;2023-03-04T06:37:11;99872.72;;;2.31;67.57
49102;BME280;34913;47.520;19.186;2023-03-04T06:39:37;99869.78;;;2.55;66.31
49102;BME280;34913;47.520;19.186;2023-03-04T06:42:02;99871.69;;;2.84;65.52
49102;BME280;34913;47.520;19.186;2023-03-04T06:44:28;99875.47;;;3.12;64.01
49102;BME280;34913;47.520;19.186;2023-03-04T06:46:53;99871.59;;;3.19;63.97
49102;BME280;34913;47.520;19.186;2023-03-04T06:49:19;99875.16;;;3.49;63.05
49102;BME280;34913;47.520;19.186;2023-03-04T06:51:44;99874.78;;;3.71;62.74
49102;BME280;34913;47.520;19.186;2023-03-04T06:54:10;99875.91;;;3.83;61.34
49102;BME280;34913;47.520;19.186;2023-03-04T06:56:35;99874.50;;;4.07;61.08
49102;BME280;34913;47.520;19.186;2023-03-04T06:59:01;99874.78;;;4.47;60.29
49102;BME280;34913;47.520;19.186;2023-03-04T07:01:28;99869.56;;;4.61;59.08
49102;BME280;34913;47.520;19.186;2023-03-04T07:03:54;99860.81;;;4.89;58.41
49102;BME280;34913;47.520;19.186;2023-03-04T07:06:22;99863.31;;;5.33;57.43
49102;BME280;34913;47.520;19.186;2023-03-04T07:08:48;99863.19;;;5.76;55.90
49102;BME280;34913;47.520;19.186;2023-03-04T07:11:14;99871.59;;;6.10;54.70
49102;BME280;34913;47.520;19.186;2023-03-04T07:13:40;99864.19;;;6.15;54.51
49102;BME280;34913;47.520;19.186;2023-03-04T07:16:10;99863.00;;;5.94;54.92
49102;BME280;34913;47.520;19.186;2023-03-04T07:18:36;99864.41;;;6.12;54.89
49102;BME280;34913;47.520;19.186;2023-03-04T07:21:03;99861.59;;;6.28;54.17
49102;BME280;34913;47.520;19.186;2023-03-04T07:23:29;99867.69;;;6.15;54.78
49102;BME280;34913;47.520;19.186;2023-03-04T07:25:54;99856.78;;;6.72;53.31
49102;BME280;34913;47.520;19.186;2023-03-04T07:28:20;99861.88;;;7.38;51.40
49102;BME280;34913;47.520;19.186;2023-03-04T07:30:45;99861.63;;;7.53;50.17
49102;BME280;34913;47.520;19.186;2023-03-04T07:33:12;99853.34;;;7.58;50.43
49102;BME280;34913;47.520;19.186;2023-03-04T07:35:38;99856.56;;;7.50;50.75
49102;BME280;34913;47.520;19.186;2023-03-04T07:38:03;99859.59;;;7.57;50.32
49102;BME280;34913;47.520;19.186;2023-03-04T07:40:29;99852.09;;;7.27;51.31
49102;BME280;34913;47.520;19.186;2023-03-04T07:42:55;99850.13;;;7.42;50.30
49102;BME280;34913;47.520;19.186;2023-03-04T07:45:21;99857.03;;;7.68;50.37
49102;BME280;34913;47.520;19.186;2023-03-04T07:47:47;99850.31;;;7.51;50.67
49102;BME280;34913;47.520;19.186;2023-03-04T07:50:13;99859.28;;;7.49;50.86
49102;BME280;34913;47.520;19.186;2023-03-04T07:52:40;99855.78;;;7.61;50.78
49102;BME280;34913;47.520;19.186;2023-03-04T07:55:07;99861.22;;;7.95;49.77
49102;BME280;34913;47.520;19.186;2023-03-04T07:57:32;99852.03;;;8.11;49.59
49102;BME280;34913;47.520;19.186;2023-03-04T07:59:58;99857.28;;;8.00;49.06
49102;BME280;34913;47.520;19.186;2023-03-04T08:02:23;99856.91;;;7.70;49.81
49102;BME280;34913;47.520;19.186;2023-03-04T08:04:49;99858.53;;;8.07;49.97
49102;BME280;34913;47.520;19.186;2023-03-04T08:07:14;99859.84;;;8.13;49.19
49102;BME280;34913;47.520;19.186;2023-03-04T08:09:40;99855.50;;;8.36;47.96
49102;BME280;34913;47.520;19.186;2023-03-04T08:12:05;99850.03;;;8.50;48.21
49102;BME280;34913;47.520;19.186;2023-03-04T08:14:31;99849.22;;;8.72;47.71
49102;BME280;34913;47.520;19.186;2023-03-04T08:16:56;99847.44;;;8.73;46.66
49102;BME280;34913;47.520;19.186;2023-03-04T08:19:22;99853.56;;;8.62;47.07
49102;BME280;34913;47.520;19.186;2023-03-04T08:21:47;99840.31;;;8.73;46.58
49102;BME280;34913;47.520;19.186;2023-03-04T08:24:12;99845.03;;;8.81;46.57
49102;BME280;34913;47.520;19.186;2023-03-04T08:26:41;99842.28;;;8.93;46.68
49102;BME280;34913;47.520;19.186;2023-03-04T08:29:08;99836.50;;;9.11;46.04
49102;BME280;34913;47.520;19.186;2023-03-04T08:31:35;99840.22;;;9.19;45.58
49102;BME280;34913;47.520;19.186;2023-03-04T08:34:02;99838.97;;;9.46;44.36
49102;BME280;34913;47.520;19.186;2023-03-04T08:36:28;99837.91;;;9.48;44.45
49102;BME280;34913;47.520;19.186;2023-03-04T08:38:53;99837.28;;;9.45;44.28
49102;BME280;34913;47.520;19.186;2023-03-04T08:41:19;99835.69;;;9.54;44.14
49102;BME280;34913;47.520;19.186;2023-03-04T08:43:44;99837.16;;;9.58;43.00
49102;BME280;34913;47.520;19.186;2023-03-04T08:46:10;99824.47;;;9.61;41.95
49102;BME280;34913;47.520;19.186;2023-03-04T08:48:36;99827.34;;;9.69;42.27
49102;BME280;34913;47.520;19.186;2023-03-04T08:51:10;99826.47;;;9.48;42.94
49102;BME280;34913;47.520;19.186;2023-03-04T08:53:37;99822.25;;;9.77;42.62
49102;BME280;34913;47.520;19.186;2023-03-04T08:56:03;99818.81;;;9.66;42.78
49102;BME280;34913;47.520;19.186;2023-03-04T08:58:29;99815.47;;;9.64;42.44
49102;BME280;34913;47.520;19.186;2023-03-04T09:00:55;99817.72;;;9.68;42.40
49102;BME280;34913;47.520;19.186;2023-03-04T09:03:20;99821.25;;;9.58;41.85
49102;BME280;34913;47.520;19.186;2023-03-04T09:05:47;99809.91;;;9.56;42.94
49102;BME280;34913;47.520;19.186;2023-03-04T09:08:13;99811.00;;;9.96;42.37
49102;BME280;34913;47.520;19.186;2023-03-04T09:10:39;99801.78;;;9.79;41.84
49102;BME280;34913;47.520;19.186;2023-03-04T09:13:05;99807.88;;;10.23;41.35
49102;BME280;34913;47.520;19.186;2023-03-04T09:15:31;99797.59;;;10.30;40.31
49102;BME280;34913;47.520;19.186;2023-03-04T09:18:01;99805.22;;;10.44;40.27
49102;BME280;34913;47.520;19.186;2023-03-04T09:20:27;99800.84;;;10.64;39.62
49102;BME280;34913;47.520;19.186;2023-03-04T09:22:53;99800.53;;;10.88;39.35
49102;BME280;34913;47.520;19.186;2023-03-04T09:25:19;99799.31;;;10.92;40.32
49102;BME280;34913;47.520;19.186;2023-03-04T09:27:44;99790.13;;;11.06;38.77
49102;BME280;34913;47.520;19.186;2023-03-04T09:30:10;99794.91;;;11.22;38.56
49102;BME280;34913;47.520;19.186;2023-03-04T09:32:36;99793.25;;;11.21;38.76
49102;BME280;34913;47.520;19.186;2023-03-04T09:35:01;99789.28;;;11.05;39.71
49102;BME280;34913;47.520;19.186;2023-03-04T09:37:27;99784.19;;;11.33;38.59
49102;BME280;34913;47.520;19.186;2023-03-04T09:39:52;99784.66;;;11.48;38.58
49102;BME280;34913;47.520;19.186;2023-03-04T09:42:27;99781.78;;;11.20;39.38
49102;BME280;34913;47.520;19.186;2023-03-04T09:44:54;99782.22;;;11.25;39.60
49102;BME280;34913;47.520;19.186;2023-03-04T09:47:22;99783.06;;;11.26;38.77
49102;BME280;34913;47.520;19.186;2023-03-04T09:49:57;99784.28;;;11.22;39.27
49102;BME280;34913;47.520;19.186;2023-03-04T09:55:22;99777.91;;;11.34;38.96
49102;BME280;34913;47.520;19.186;2023-03-04T10:00:52;99768.78;;;11.27;39.38
49102;BME280;34913;47.520;19.186;2023-03-04T10:03:22;99765.75;;;11.31;39.11
49102;BME280;34913;47.520;19.186;2023-03-04T10:05:53;99758.44;;;11.24;40.56
49102;BME280;34913;47.520;19.186;2023-03-04T10:10:53;99749.38;;;10.76;40.01
49102;BME280;34913;47.520;19.186;2023-03-04T10:16:43;99753.69;;;10.77;41.83
49102;BME280;34913;47.520;19.186;2023-03-04T10:19:23;99752.53;;;11.10;39.85
49102;BME280;34913;47.520;19.186;2023-03-04T10:21:53;99759.22;;;11.05;41.05
49102;BME280;34913;47.520;19.186;2023-03-04T10:24:20;99758.63;;;10.92;40.52
49102;BME280;34913;47.520;19.186;2023-03-04T10:26:56;99759.69;;;11.29;39.58
49102;BME280;34913;47.520;19.186;2023-03-04T10:29:27;99765.06;;;11.39;39.79
49102;BME280;34913;47.520;19.186;2023-03-04T10:31:54;99752.53;;;11.10;40.35
49102;BME280;34913;47.520;19.186;2023-03-04T10:34:21;99754.13;;;11.23;40.53
49102;BME280;34913;47.520;19.186;2023-03-04T10:36:54;99753.84;;;11.35;40.05
49102;BME280;34913;47.520;19.186;2023-03-04T10:39:25;99744.44;;;11.12;40.38
49102;BME280;34913;47.520;19.186;2023-03-04T10:44:42;99738.78;;;10.96;40.75
49102;BME280;34913;47.520;19.186;2023-03-04T10:47:10;99742.28;;;10.96;41.47
49102;BME280;34913;47.520;19.186;2023-03-04T10:49:53;99736.47;;;11.12;41.10
49102;BME280;34913;47.520;19.186;2023-03-04T10:54:56;99730.06;;;11.24;40.81
49102;BME280;34913;47.520;19.186;2023-03-04T10:57:33;99735.63;;;11.21;40.07
49102;BME280;34913;47.520;19.186;2023-03-04T11:00:00;99720.31;;;10.84;40.82
49102;BME280;34913;47.520;19.186;2023-03-04T11:02:32;99727.34;;;11.05;41.36
49102;BME280;34913;47.520;19.186;2023-03-04T11:05:18;99726.34;;;10.96;40.80
49102;BME280;34913;47.520;19.186;2023-03-04T11:07:52;99717.22;;;10.79;39.75
49102;BME280;34913;47.520;19.186;2023-03-04T11:13:06;99716.34;;;11.29;38.99
49102;BME280;34913;47.520;19.186;2023-03-04T11:18:33;99712.69;;;11.20;40.44
49102;BME280;34913;47.520;19.186;2023-03-04T11:21:04;99718.31;;;11.17;39.79
49102;BME280;34913;47.520;19.186;2023-03-04T11:26:45;99717.34;;;11.37;39.09
49102;BME280;34913;47.520;19.186;2023-03-04T11:32:04;99705.16;;;11.44;37.91
49102;BME280;34913;47.520;19.186;2023-03-04T11:34:37;99705.59;;;11.40;38.38
49102;BME280;34913;47.520;19.186;2023-03-04T11:37:23;99703.22;;;11.56;38.27
49102;BME280;34913;47.520;19.186;2023-03-04T11:40:00;99687.72;;;11.61;38.10
49102;BME280;34913;47.520;19.186;2023-03-04T11:42:48;99683.94;;;11.64;38.37
49102;BME280;34913;47.520;19.186;2023-03-04T11:45:22;99681.41;;;11.33;38.52
49102;BME280;34913;47.520;19.186;2023-03-04T11:53:24;99669.50;;;11.28;39.25
49102;BME280;34913;47.520;19.186;2023-03-04T11:56:12;99667.84;;;11.27;39.09
49102;BME280;34913;47.520;19.186;2023-03-04T11:59:49;99664.91;;;11.30;38.99
49102;BME280;34913;47.520;19.186;2023-03-04T12:24:07;99612.50;;;11.98;37.22
49102;BME280;34913;47.520;19.186;2023-03-04T12:27:05;99614.31;;;11.97;38.12
49102;BME280;34913;47.520;19.186;2023-03-04T12:29:56;99612.00;;;12.22;38.81
49102;BME280;34913;47.520;19.186;2023-03-04T12:32:30;99609.38;;;12.40;36.22
49102;BME280;34913;47.520;19.186;2023-03-04T12:35:03;99605.19;;;12.10;37.52
49102;BME280;34913;47.520;19.186;2023-03-04T12:37:56;99603.66;;;12.07;37.05
49102;BME280;34913;47.520;19.186;2023-03-04T12:40:42;99608.28;;;12.05;36.71
49102;BME280;34913;47.520;19.186;2023-03-04T12:50:59;99596.31;;;11.82;36.69
49102;BME280;34913;47.520;19.186;2023-03-04T12:56:40;99586.66;;;11.71;37.53
49102;BME280;34913;47.520;19.186;2023-03-04T12:59:14;99583.81;;;12.01;36.56
49102;BME280;34913;47.520;19.186;2023-03-04T13:01:52;99578.09;;;11.96;37.22
49102;BME280;34913;47.520;19.186;2023-03-04T13:04:48;99575.94;;;12.10;37.13
49102;BME280;34913;47.520;19.186;2023-03-04T13:10:09;99566.31;;;11.99;37.33
49102;BME280;34913;47.520;19.186;2023-03-04T13:12:51;99554.66;;;12.10;36.93
49102;BME280;34913;47.520;19.186;2023-03-04T13:15:29;99550.31;;;12.09;37.32
49102;BME280;34913;47.520;19.186;2023-03-04T13:18:03;99552.13;;;12.08;37.56
49102;BME280;34913;47.520;19.186;2023-03-04T13:21:15;99548.56;;;11.90;37.33
49102;BME280;34913;47.520;19.186;2023-03-04T13:23:44;99544.38;;;11.87;36.82
49102;BME280;34913;47.520;19.186;2023-03-04T13:28:43;99531.06;;;12.24;36.32
49102;BME280;34913;47.520;19.186;2023-03-04T13:36:01;99520.97;;;12.64;36.40
49102;BME280;34913;47.520;19.186;2023-03-04T13:43:54;99522.03;;;12.53;35.73
49102;BME280;34913;47.520;19.186;2023-03-04T13:53:50;99496.78;;;12.75;33.79
49102;BME280;34913;47.520;19.186;2023-03-04T13:56:39;99497.56;;;12.67;33.74
49102;BME280;34913;47.520;19.186;2023-03-04T14:06:47;99480.59;;;12.68;31.57
49102;BME280;34913;47.520;19.186;2023-03-04T14:09:24;99487.53;;;12.16;32.55
49102;BME280;34913;47.520;19.186;2023-03-04T14:11:55;99475.19;;;12.24;32.68
49102;BME280;34913;47.520;19.186;2023-03-04T14:14:24;99473.28;;;12.35;32.12
49102;BME280;34913;47.520;19.186;2023-03-04T14:17:02;99474.56;;;12.30;32.04
49102;BME280;34913;47.520;19.186;2023-03-04T14:19:31;99475.69;;;12.28;31.73
49102;BME280;34913;47.520;19.186;2023-03-04T14:22:00;99483.75;;;12.18;31.65
49102;BME280;34913;47.520;19.186;2023-03-04T14:24:26;99476.19;;;11.96;32.27
49102;BME280;34913;47.520;19.186;2023-03-04T14:27:12;99478.41;;;11.63;33.04
49102;BME280;34913;47.520;19.186;2023-03-04T14:29:38;99475.19;;;11.60;33.16
49102;BME280;34913;47.520;19.186;2023-03-04T14:32:05;99473.97;;;11.54;33.24
49102;BME280;34913;47.520;19.186;2023-03-04T14:34:33;99481.41;;;11.41;33.81
49102;BME280;34913;47.520;19.186;2023-03-04T14:37:01;99485.16;;;11.48;33.85
49102;BME280;34913;47.520;19.186;2023-03-04T14:39:30;99480.63;;;11.21;33.69
49102;BME280;34913;47.520;19.186;2023-03-04T14:42:02;99483.38;;;11.29;33.79
49102;BME280;34913;47.520;19.186;2023-03-04T14:44:41;99489.00;;;11.26;33.76